This is the latest recevied weather packets stored in our database for station/object WX5RP. If no packets are shown the sender has not sent any weather packets the latest 1 day(s).
| Time | Temp. | Humidity | Pressure | Rain* | Wind** | Luminosity | Snow |
|---|---|---|---|---|---|---|---|
| 1778039715 | 13.89° C | 49% | 1015.3 hPa | 0 mm | 2.68 m/s, 338° | 0 W/m² | - |
| 1778039115 | 14.44° C | 52% | 1015.3 hPa | 0 mm | 2.68 m/s, 338° | 0 W/m² | - |
| 1778038515 | 15.56° C | 44% | 1014.6 hPa | 0 mm | 2.68 m/s, 338° | 0 W/m² | - |
| 1778037915 | 17.22° C | 42% | 1013.9 hPa | 0 mm | 2.68 m/s, 0° | 0 W/m² | - |
| 1778037316 | 17.78° C | 39% | 1013.9 hPa | 0 mm | 4.02 m/s, 338° | 0 W/m² | - |
| 1778036715 | 17.78° C | 39% | 1014.7 hPa | 0 mm | 3.58 m/s, 338° | 7 W/m² | - |
| 1778036115 | 18.33° C | 39% | 1014.3 hPa | 0 mm | 3.13 m/s, 338° | 12 W/m² | - |
| 1778035515 | 18.89° C | 36% | 1014.3 hPa | 0 mm | 3.13 m/s, 338° | 16 W/m² | - |
| 1778034915 | 19.44° C | 37% | 1013.5 hPa | 0 mm | 4.02 m/s, 338° | 22 W/m² | - |
| 1778034315 | 20° C | 35% | 1013.3 hPa | 0 mm | 4.47 m/s, 338° | 29 W/m² | - |
| 1778033715 | 20.56° C | 36% | 1013.1 hPa | 0 mm | 5.36 m/s, 0° | 50 W/m² | - |
| 1778033116 | 20.56° C | 34% | 1014.1 hPa | 0 mm | 5.81 m/s, 0° | 80 W/m² | - |
| 1778032516 | 21.11° C | 35% | 1013.5 hPa | 0 mm | 4.92 m/s, 0° | 162 W/m² | - |
| 1778031916 | 21.11° C | 32% | 1013.5 hPa | 0 mm | 4.92 m/s, 0° | 153 W/m² | - |
| 1778031316 | 21.11° C | 35% | 1013.4 hPa | 0 mm | 4.47 m/s, 0° | 72 W/m² | - |
| 1778030716 | 21.67° C | 34% | 1012.9 hPa | 0 mm | 5.81 m/s, 0° | 110 W/m² | - |
| 1778030128 | 21.67° C | 32% | 1012.9 hPa | 0 mm | 6.26 m/s, 338° | 107 W/m² | - |
| 1778029516 | 21.11° C | 34% | 1013.6 hPa | 0 mm | 5.81 m/s, 0° | 145 W/m² | - |
| 1778028916 | 21.67° C | 34% | 1013.5 hPa | 0 mm | 6.26 m/s, 0° | 133 W/m² | - |
| 1778028316 | 22.22° C | 33% | 1013.5 hPa | 0 mm | 6.71 m/s, 0° | 349 W/m² | - |
| 1778027716 | 21.11° C | 38% | 1013.5 hPa | 0 mm | 5.81 m/s, 0° | 192 W/m² | - |
| 1778027116 | 21.67° C | 38% | 1013.5 hPa | 0 mm | 6.26 m/s, 23° | 198 W/m² | - |
| 1778026516 | 22.22° C | 35% | 1013.4 hPa | 0 mm | 5.36 m/s, 0° | 208 W/m² | - |
| 1778025916 | 21.67° C | 37% | 1013.4 hPa | 0 mm | 4.92 m/s, 0° | 490 W/m² | - |
| 1778025316 | 21.11° C | 40% | 1013.2 hPa | 0 mm | 4.02 m/s, 0° | 158 W/m² | - |
* Rain latest hour (hover to see other rain measurements)
** Current wind speed in m/s (hover to see current wind gust speed)